Time;durP1;ratioP1;P1;durP2;ratioP2;P2;SDS_P1;SDS_P2;PMS_P1;PMS_P2;Temp;Humidity;BMP_temperature;BMP_pressure;BME280_temperature;BME280_humidity;BME280_pressure;Samples;Min_cycle;Max_cycle;Signal;HPM_P1;HPM_P2
2021/06/10 00:00:15;;;;;;;0.93;0.90;;;;;;;17.15;76.38;99306.72;5082206;28;38679;-80
2021/06/10 00:02:42;;;;;;;0.80;0.80;;;;;;;17.16;77.10;99312.91;5069908;28;41431;-80
2021/06/10 00:05:12;;;;;;;1.07;0.97;;;;;;;17.09;77.33;99295.66;5069184;28;42805;-79
2021/06/10 00:07:39;;;;;;;1.13;0.90;;;;;;;16.88;77.77;99266.16;5069126;28;41369;-81
2021/06/10 00:10:10;;;;;;;1.30;1.00;;;;;;;17.09;77.45;99303.69;5084364;28;40331;-79
2021/06/10 00:12:38;;;;;;;1.33;0.90;;;;;;;17.07;77.59;99306.47;5102232;28;41398;-79
2021/06/10 00:15:08;;;;;;;1.17;1.10;;;;;;;16.97;76.98;99302.00;5085129;28;42504;-79
2021/06/10 00:17:35;;;;;;;0.80;0.70;;;;;;;16.91;76.93;99297.16;5071455;28;42882;-79
2021/06/10 00:20:03;;;;;;;0.70;0.70;;;;;;;16.97;76.89;99313.56;5085859;28;39065;-80
2021/06/10 00:22:30;;;;;;;0.80;0.77;;;;;;;16.85;76.27;99303.84;5070564;28;41787;-80
2021/06/10 00:24:57;;;;;;;0.93;0.60;;;;;;;16.93;76.38;99320.16;5069083;28;42751;-79
2021/06/10 00:27:26;;;;;;;0.87;0.87;;;;;;;16.88;76.21;99319.66;5069645;28;42204;-79
2021/06/10 00:30:11;;;;;;;0.77;0.77;;;;;;;16.84;76.12;99308.34;5085599;28;39879;-79
2021/06/10 00:32:38;;;;;;;1.40;0.83;;;;;;;16.72;75.66;99306.66;5103359;28;41844;-79
2021/06/10 00:35:06;;;;;;;0.80;0.80;;;;;;;16.79;75.84;99320.41;5085985;28;42721;-79
2021/06/10 00:37:34;;;;;;;1.30;1.00;;;;;;;16.63;75.96;99295.88;5058600;28;41174;-80
2021/06/10 00:40:01;;;;;;;1.27;1.17;;;;;;;16.74;77.17;99317.25;5090488;28;42714;-81
2021/06/10 00:42:30;;;;;;;0.40;0.40;;;;;;;16.72;76.81;99320.03;5090824;28;41646;-80
2021/06/10 00:44:57;;;;;;;1.20;0.90;;;;;;;16.72;76.57;99320.03;5091368;28;43019;-80
2021/06/10 00:47:25;;;;;;;0.60;0.60;;;;;;;16.72;76.96;99325.38;5106347;28;42509;-80
2021/06/10 00:49:53;;;;;;;0.50;0.50;;;;;;;16.72;76.71;99330.75;5107089;28;39372;-83
2021/06/10 00:52:20;;;;;;;0.80;0.63;;;;;;;16.73;77.24;99329.78;5073780;28;41601;-79
2021/06/10 00:54:47;;;;;;;0.70;0.70;;;;;;;16.60;76.72;99304.94;5084727;28;46897;-79
2021/06/10 00:57:15;;;;;;;0.73;0.67;;;;;;;16.72;76.46;99325.38;5067555;28;42532;-81
2021/06/10 00:59:43;;;;;;;0.53;0.53;;;;;;;16.73;76.38;99329.78;5069403;28;40403;-79
2021/06/10 01:02:11;;;;;;;1.30;0.87;;;;;;;16.75;75.91;99335.00;5085077;28;40749;-79
2021/06/10 01:04:38;;;;;;;0.97;0.77;;;;;;;16.74;76.15;99327.94;5056330;28;41464;-79
2021/06/10 01:07:10;;;;;;;1.17;0.73;;;;;;;16.70;75.88;99323.81;5102322;28;42999;-80
2021/06/10 01:09:43;;;;;;;0.50;0.50;;;;;;;16.70;76.04;99321.13;5069934;28;40303;-80
2021/06/10 01:12:18;;;;;;;0.70;0.70;;;;;;;16.59;75.50;99308.59;5101081;28;40602;-79
2021/06/10 01:14:54;;;;;;;0.63;0.63;;;;;;;16.65;75.76;99323.34;5067857;28;43742;-80
2021/06/10 01:17:22;;;;;;;0.80;0.80;;;;;;;16.55;75.31;99311.66;5051887;28;41609;-79
2021/06/10 01:20:07;;;;;;;1.07;0.97;;;;;;;16.57;75.15;99323.91;5068176;28;39725;-79
2021/06/10 01:22:40;;;;;;;0.80;0.80;;;;;;;16.62;75.41;99335.13;5102383;27;42376;-80
2021/06/10 01:25:14;;;;;;;1.00;0.77;;;;;;;16.59;75.58;99335.34;5069600;28;41701;-80
2021/06/10 01:27:59;;;;;;;0.80;0.70;;;;;;;16.59;75.82;99337.16;5067086;28;42316;-80
2021/06/10 01:30:28;;;;;;;0.80;0.60;;;;;;;16.45;75.45;99316.84;5097364;28;40462;-80
2021/06/10 01:33:00;;;;;;;1.13;1.03;;;;;;;16.54;75.60;99332.19;5070096;28;41582;-80
2021/06/10 01:35:35;;;;;;;0.93;0.70;;;;;;;16.51;76.45;99333.28;5084617;28;41484;-80
2021/06/10 01:38:03;;;;;;;0.67;0.67;;;;;;;16.54;76.25;99332.19;5067420;28;42836;-80
2021/06/10 01:40:31;;;;;;;0.80;0.80;;;;;;;16.44;76.32;99307.16;5063404;28;39539;-79
2021/06/10 01:43:02;;;;;;;0.90;0.57;;;;;;;16.51;76.54;99316.38;5051343;28;41818;-77
2021/06/10 01:45:30;;;;;;;0.83;0.50;;;;;;;16.57;76.14;99323.91;5067741;28;42126;-80
2021/06/10 01:47:57;;;;;;;0.80;0.80;;;;;;;16.58;76.23;99317.59;5063232;28;42325;-79
2021/06/10 01:50:24;;;;;;;0.70;0.70;;;;;;;16.59;76.58;99313.94;5084152;28;39086;-79
2021/06/10 01:52:54;;;;;;;0.67;0.67;;;;;;;16.60;76.29;99321.00;5068127;28;41437;-79
2021/06/10 01:55:27;;;;;;;0.67;0.67;;;;;;;16.62;76.14;99324.44;5066621;28;42787;-79
2021/06/10 01:57:58;;;;;;;0.97;0.97;;;;;;;16.64;76.25;99327.84;5050780;28;41514;-79
2021/06/10 02:00:27;;;;;;;0.63;0.63;;;;;;;16.57;75.81;99305.19;5067341;28;40017;-79
2021/06/10 02:02:55;;;;;;;1.10;0.80;;;;;;;16.58;75.88;99306.88;5050267;28;41627;-79
2021/06/10 02:05:29;;;;;;;0.40;0.40;;;;;;;16.52;75.52;99291.34;5097429;28;42146;-80
2021/06/10 02:07:57;;;;;;;0.50;0.40;;;;;;;16.58;75.39;99301.53;5066203;28;42213;-79
2021/06/10 02:10:26;;;;;;;0.90;0.90;;;;;;;16.70;75.58;99327.34;5067084;28;41307;-79
2021/06/10 02:12:55;;;;;;;0.50;0.50;;;;;;;16.68;75.61;99317.75;5050512;28;41865;-80
2021/06/10 02:15:22;;;;;;;1.13;0.80;;;;;;;16.69;75.52;99324.81;5083657;28;41746;-80
2021/06/10 02:17:51;;;;;;;0.50;0.50;;;;;;;16.67;75.40;99316.91;5069052;28;42363;-79
2021/06/10 02:20:20;;;;;;;0.60;0.60;;;;;;;16.70;75.12;99318.47;5069181;28;40482;-80
2021/06/10 02:22:48;;;;;;;1.27;0.70;;;;;;;16.70;75.21;99316.63;5050952;28;40867;-79
2021/06/10 02:25:15;;;;;;;0.37;0.37;;;;;;;16.60;75.20;99299.59;5083363;28;42686;-80
2021/06/10 02:27:42;;;;;;;0.60;0.50;;;;;;;16.67;75.28;99300.84;5069543;28;42165;-80
2021/06/10 02:30:12;;;;;;;0.67;0.60;;;;;;;16.66;75.50;99300.97;5087523;28;39888;-80
2021/06/10 02:32:39;;;;;;;0.70;0.50;;;;;;;16.63;75.24;99294.03;5068590;28;41630;-80
2021/06/10 02:35:11;;;;;;;1.27;0.70;;;;;;;16.72;75.35;99309.34;5087481;28;42862;-81
2021/06/10 02:37:41;;;;;;;0.57;0.57;;;;;;;16.71;75.28;99315.66;5085373;28;42288;-80
2021/06/10 02:40:12;;;;;;;0.60;0.60;;;;;;;16.70;75.25;99310.44;5069958;28;38915;-79
2021/06/10 02:42:39;;;;;;;1.13;0.73;;;;;;;16.66;75.41;99303.66;5088447;28;41647;-80
2021/06/10 02:45:08;;;;;;;0.40;0.40;;;;;;;16.62;75.27;99299.47;5070180;28;41950;-81
2021/06/10 02:47:37;;;;;;;0.90;0.90;;;;;;;16.59;75.09;99308.59;5071011;28;41943;-80
2021/06/10 02:50:06;;;;;;;0.50;0.40;;;;;;;16.53;75.37;99304.59;5066354;28;40095;-80
2021/06/10 02:52:36;;;;;;;0.73;0.73;;;;;;;16.49;75.32;99303.13;5071827;28;41592;-79
2021/06/10 02:55:04;;;;;;;0.50;0.50;;;;;;;16.44;75.44;99310.66;5064913;28;42643;-80
2021/06/10 02:57:33;;;;;;;0.70;0.70;;;;;;;16.42;75.39;99303.75;5069677;28;42063;-80
2021/06/10 03:00:01;;;;;;;0.63;0.63;;;;;;;16.37;75.20;99305.94;5053649;28;39625;-80
2021/06/10 03:02:28;;;;;;;0.63;0.63;;;;;;;16.34;75.12;99303.50;5087099;28;40360;-80
2021/06/10 03:04:57;;;;;;;0.50;0.50;;;;;;;16.19;75.27;99283.34;5068773;28;43505;-79
2021/06/10 03:07:24;;;;;;;0.87;0.63;;;;;;;16.25;75.30;99307.75;5070391;28;42162;-80
2021/06/10 03:09:53;;;;;;;0.50;0.50;;;;;;;16.22;75.47;99304.47;5071012;28;40691;-81
2021/06/10 03:12:21;;;;;;;0.70;0.70;;;;;;;16.19;75.61;99304.72;5069392;28;41781;-80
2021/06/10 03:14:48;;;;;;;0.87;0.77;;;;;;;16.15;75.71;99304.97;5103689;28;43518;-79
2021/06/10 03:17:18;;;;;;;0.70;0.70;;;;;;;16.11;75.26;99302.63;5086091;28;41438;-80
2021/06/10 03:19:45;;;;;;;0.87;0.70;;;;;;;15.90;75.50;99273.09;5053503;28;39888;-79
2021/06/10 03:22:13;;;;;;;0.50;0.50;;;;;;;16.04;75.62;99290.72;5068927;28;41574;-79
2021/06/10 03:24:41;;;;;;;0.50;0.50;;;;;;;16.02;75.46;99304.22;5053895;28;42113;-79
2021/06/10 03:27:12;;;;;;;1.00;0.87;;;;;;;16.01;75.39;99302.50;5072179;28;42915;-80
2021/06/10 03:29:40;;;;;;;0.53;0.53;;;;;;;16.00;75.40;99300.81;5099264;28;39637;-79
2021/06/10 03:32:09;;;;;;;0.70;0.50;;;;;;;15.93;75.37;99291.56;5053196;28;41227;-80
2021/06/10 03:34:37;;;;;;;1.00;1.00;;;;;;;15.93;75.42;99286.22;5070903;28;43482;-79
2021/06/10 03:37:06;;;;;;;0.83;0.83;;;;;;;15.99;75.43;99301.78;5086629;28;42128;-79
2021/06/10 03:39:37;;;;;;;0.93;0.43;;;;;;;16.01;75.33;99299.84;5053375;28;38591;-80
2021/06/10 03:42:06;;;;;;;0.80;0.80;;;;;;;16.01;75.13;99293.63;5053123;28;40745;-79
2021/06/10 03:44:35;;;;;;;0.50;0.43;;;;;;;16.05;75.37;99293.28;5069737;28;42588;-80
2021/06/10 03:47:02;;;;;;;0.50;0.43;;;;;;;16.07;75.20;99291.31;5069313;28;42169;-83
2021/06/10 03:49:32;;;;;;;0.50;0.50;;;;;;;16.04;75.10;99278.22;5070689;28;40858;-80
2021/06/10 03:51:59;;;;;;;1.10;0.70;;;;;;;16.17;75.00;99289.66;5086889;28;41542;-79
2021/06/10 03:54:27;;;;;;;0.67;0.63;;;;;;;16.23;75.23;99290.97;5051132;28;41918;-80
2021/06/10 03:56:54;;;;;;;1.57;1.10;;;;;;;16.29;75.07;99297.69;5069641;28;41926;-80
2021/06/10 03:59:22;;;;;;;0.50;0.50;;;;;;;16.33;74.75;99291.94;5085579;28;38913;-79
2021/06/10 04:01:51;;;;;;;1.03;0.63;;;;;;;16.34;74.82;99288.31;5069049;28;42316;-80
2021/06/10 04:04:18;;;;;;;0.97;0.93;;;;;;;16.44;74.92;99309.84;5052960;28;42729;-80
2021/06/10 04:06:59;;;;;;;1.03;1.00;;;;;;;16.40;74.75;99287.84;5067255;28;42133;-80
2021/06/10 04:09:26;;;;;;;0.47;0.47;;;;;;;16.57;74.64;99302.50;5085622;28;39307;-80
2021/06/10 04:11:53;;;;;;;0.50;0.50;;;;;;;16.63;74.99;99304.75;5071433;28;41778;-79
2021/06/10 04:14:20;;;;;;;1.17;1.07;;;;;;;16.68;75.03;99307.91;5085944;28;41807;-82
2021/06/10 04:16:47;;;;;;;0.73;0.67;;;;;;;16.70;75.02;99305.94;5052812;28;41317;-81
2021/06/10 04:19:15;;;;;;;1.27;1.20;;;;;;;16.82;75.05;99314.78;5052950;28;40287;-79
2021/06/10 04:21:43;;;;;;;1.33;1.13;;;;;;;16.87;74.85;99308.13;5069737;28;42370;-78
2021/06/10 04:24:10;;;;;;;1.13;1.13;;;;;;;17.00;74.78;99317.81;5102609;28;42979;-81
2021/06/10 04:26:37;;;;;;;0.90;0.73;;;;;;;17.09;74.79;99319.72;5102287;28;42109;-80
2021/06/10 04:29:04;;;;;;;0.73;0.73;;;;;;;17.17;74.66;99315.47;5068974;28;40269;-81
2021/06/10 04:31:31;;;;;;;0.77;0.77;;;;;;;17.26;74.60;99318.34;5068790;28;41668;-81
2021/06/10 04:33:58;;;;;;;0.87;0.80;;;;;;;17.24;75.01;99305.09;5069093;28;42397;-80
2021/06/10 04:36:27;;;;;;;0.77;0.77;;;;;;;17.40;74.62;99321.59;5068055;28;42239;-81
2021/06/10 04:38:54;;;;;;;1.23;0.97;;;;;;;17.45;74.72;99316.69;5068766;28;40951;-81
2021/06/10 04:41:21;;;;;;;1.07;1.00;;;;;;;17.45;74.79;99302.44;5067418;28;42766;-80
2021/06/10 04:43:48;;;;;;;1.17;0.73;;;;;;;17.46;74.82;99305.00;5052435;28;42896;-79
2021/06/10 04:46:16;;;;;;;1.00;1.00;;;;;;;17.58;74.37;99309.34;5068213;28;41921;-80
2021/06/10 04:48:43;;;;;;;0.70;0.70;;;;;;;17.69;74.34;99315.63;5071632;28;39803;-80
2021/06/10 04:51:10;;;;;;;1.20;1.10;;;;;;;17.71;74.21;99297.63;5068620;28;42418;-79
2021/06/10 04:53:41;;;;;;;1.07;1.03;;;;;;;17.83;74.57;99307.28;5068010;28;42406;-81
2021/06/10 04:56:09;;;;;;;1.43;1.00;;;;;;;17.92;74.29;99311.88;5083495;28;41551;-80
2021/06/10 04:58:36;;;;;;;1.53;1.00;;;;;;;18.01;74.25;99302.19;5067934;28;40488;-81
2021/06/10 05:01:03;;;;;;;0.80;0.60;;;;;;;18.11;73.85;99301.28;5069414;28;41821;-81
2021/06/10 05:03:30;;;;;;;0.87;0.87;;;;;;;18.21;74.09;99312.88;5050704;28;43032;-81
2021/06/10 05:05:58;;;;;;;1.10;0.97;;;;;;;18.33;73.55;99304.75;5066310;28;42935;-80
2021/06/10 05:08:25;;;;;;;0.93;0.90;;;;;;;18.43;73.49;99306.50;5068155;28;39689;-80
2021/06/10 05:10:54;;;;;;;1.30;1.20;;;;;;;18.50;73.23;99312.19;5084774;28;42097;-81
2021/06/10 05:13:21;;;;;;;1.13;1.03;;;;;;;18.60;73.55;99321.16;5101220;28;42731;-81
2021/06/10 05:15:48;;;;;;;1.70;1.33;;;;;;;18.72;73.05;99316.53;5067729;28;41255;-81
2021/06/10 05:18:15;;;;;;;1.47;1.10;;;;;;;18.83;73.00;99322.66;5084915;28;38837;-80
2021/06/10 05:20:43;;;;;;;1.17;1.13;;;;;;;18.95;72.74;99315.31;5086399;28;42030;-79
2021/06/10 05:23:10;;;;;;;1.23;1.13;;;;;;;19.06;72.73;99325.09;5083868;28;42029;-78
2021/06/10 05:25:37;;;;;;;1.33;0.90;;;;;;;19.17;72.14;99308.88;5084964;28;41874;-79
2021/06/10 05:28:06;;;;;;;1.00;0.87;;;;;;;19.36;72.21;99322.34;5068238;28;41072;-79
2021/06/10 05:30:33;;;;;;;1.07;0.97;;;;;;;19.44;71.79;99310.88;5066845;28;41807;-79
2021/06/10 05:33:00;;;;;;;1.07;0.97;;;;;;;19.69;71.41;99319.25;5068094;28;42662;-79
2021/06/10 05:35:27;;;;;;;1.13;1.00;;;;;;;19.79;71.08;99323.75;5062300;28;41479;-80
2021/06/10 05:37:54;;;;;;;0.93;0.93;;;;;;;19.87;70.30;99319.38;5064953;28;39547;-81
2021/06/10 05:40:21;;;;;;;1.30;1.20;;;;;;;19.97;70.19;99327.44;5098702;28;42388;-81
2021/06/10 05:42:49;;;;;;;1.27;1.17;;;;;;;20.09;70.44;99337.03;5065766;28;42055;-77
2021/06/10 05:45:17;;;;;;;1.57;1.43;;;;;;;20.05;70.29;99331.09;5066343;28;41668;-78
2021/06/10 05:47:44;;;;;;;1.43;1.33;;;;;;;19.95;70.60;99334.78;5067866;28;39696;-77
2021/06/10 05:50:12;;;;;;;1.17;1.10;;;;;;;19.87;70.46;99329.28;5049606;28;41827;-76
2021/06/10 05:52:40;;;;;;;2.07;1.07;;;;;;;19.72;70.34;99316.28;5064088;28;43613;-77
2021/06/10 05:55:08;;;;;;;1.13;1.03;;;;;;;19.73;70.61;99331.41;5069113;28;42165;-78
2021/06/10 05:57:35;;;;;;;0.90;0.90;;;;;;;19.79;71.08;99329.13;5068324;28;39929;-77
2021/06/10 06:00:04;;;;;;;1.03;1.00;;;;;;;19.90;70.89;99327.19;5101311;28;43213;-78
2021/06/10 06:02:41;;;;;;;1.00;0.83;;;;;;;19.99;70.78;99317.38;5049421;28;42663;-76
2021/06/10 06:05:08;;;;;;;1.30;1.10;;;;;;;20.16;70.51;99331.91;5048457;28;41916;-78
2021/06/10 06:07:35;;;;;;;0.87;0.87;;;;;;;20.19;70.22;99323.56;5065143;28;40668;-80
2021/06/10 06:10:05;;;;;;;0.70;0.70;;;;;;;20.06;70.08;99299.66;5083837;28;40238;-80
2021/06/10 06:12:33;;;;;;;0.87;0.87;;;;;;;20.40;69.80;99329.63;5099694;28;41923;-79
2021/06/10 06:15:00;;;;;;;0.77;0.77;;;;;;;20.41;69.59;99332.16;5066982;28;40619;-80
2021/06/10 06:17:28;;;;;;;1.17;1.00;;;;;;;20.60;69.53;99327.72;5068816;28;40149;-80
2021/06/10 06:19:59;;;;;;;1.30;1.00;;;;;;;20.87;69.06;99337.66;5047277;28;41547;-79
2021/06/10 06:22:28;;;;;;;1.63;1.50;;;;;;;21.02;68.66;99336.13;5067286;28;42981;-80
2021/06/10 06:24:55;;;;;;;1.53;1.37;;;;;;;21.13;68.29;99323.34;5051207;28;42298;-80
2021/06/10 06:27:22;;;;;;;1.13;1.07;;;;;;;21.25;67.84;99337.47;5066913;28;39990;-80
2021/06/10 06:29:54;;;;;;;0.93;0.90;;;;;;;21.44;67.83;99337.31;5068349;28;42295;-80
2021/06/10 06:32:21;;;;;;;1.80;1.30;;;;;;;21.64;67.62;99337.16;5099460;28;42895;-78
2021/06/10 06:34:48;;;;;;;2.07;1.97;;;;;;;21.82;66.81;99346.97;5069311;28;42823;-77
2021/06/10 06:37:17;;;;;;;1.40;1.30;;;;;;;21.84;65.89;99309.91;5099915;28;40154;-77
2021/06/10 06:39:44;;;;;;;1.63;1.27;;;;;;;22.21;65.38;99346.63;5068342;27;41239;-79
2021/06/10 06:42:11;;;;;;;1.80;1.57;;;;;;;22.32;65.25;99349.06;5065849;28;42860;-78
2021/06/10 06:44:38;;;;;;;1.03;1.03;;;;;;;22.52;65.38;99355.91;5066551;28;42067;-79
2021/06/10 06:47:06;;;;;;;1.63;1.53;;;;;;;22.69;64.46;99347.94;5060933;28;40434;-78
2021/06/10 06:49:34;;;;;;;1.23;1.17;;;;;;;22.87;64.04;99354.13;5048263;28;41652;-76
2021/06/10 06:52:01;;;;;;;1.40;1.30;;;;;;;23.05;64.11;99349.47;5066672;28;43329;-78
2021/06/10 06:54:29;;;;;;;1.33;1.20;;;;;;;23.27;63.47;99345.31;5088288;28;42483;-76
2021/06/10 06:56:57;;;;;;;1.23;1.13;;;;;;;23.48;62.84;99353.00;5066923;28;39048;-78
2021/06/10 06:59:24;;;;;;;2.07;1.87;;;;;;;23.68;61.99;99354.41;5083597;28;40634;-77
2021/06/10 07:01:51;;;;;;;2.43;1.10;;;;;;;23.83;61.03;99350.03;5067323;28;43265;-78
2021/06/10 07:04:18;;;;;;;1.67;1.33;;;;;;;24.23;60.40;99354.59;5066696;28;42435;-78
2021/06/10 07:06:47;;;;;;;1.57;1.40;;;;;;;24.71;58.77;99352.81;5066846;28;40809;-77
2021/06/10 07:09:14;;;;;;;1.60;1.50;;;;;;;25.07;58.21;99352.38;5066973;28;41708;-78
2021/06/10 07:11:42;;;;;;;2.33;1.80;;;;;;;25.03;57.98;99351.88;5068321;28;43438;-77
2021/06/10 07:14:10;;;;;;;1.40;1.10;;;;;;;24.94;58.84;99351.06;5063198;28;42199;-77
2021/06/10 07:16:37;;;;;;;1.90;1.80;;;;;;;24.86;58.98;99355.63;5096417;28;40606;-77
2021/06/10 07:19:04;;;;;;;1.40;1.30;;;;;;;24.83;59.32;99340.59;5069133;28;41509;-78
2021/06/10 07:21:42;;;;;;;2.53;1.90;;;;;;;24.97;58.70;99353.41;5069275;28;42682;-78
2021/06/10 07:24:10;;;;;;;1.47;1.37;;;;;;;25.20;58.82;99358.94;5069693;28;42121;-77
2021/06/10 07:26:37;;;;;;;1.17;1.00;;;;;;;25.56;57.47;99358.38;5087237;28;38687;-77
2021/06/10 07:29:06;;;;;;;1.20;1.20;;;;;;;26.28;56.54;99364.31;5070471;28;41597;-77
2021/06/10 07:31:33;;;;;;;1.70;1.43;;;;;;;27.05;53.88;99383.91;5071392;28;42641;-77
2021/06/10 07:34:02;;;;;;;1.50;1.40;;;;;;;27.31;53.13;99376.09;5070533;28;42950;-78
2021/06/10 07:36:29;;;;;;;1.03;0.83;;;;;;;27.76;52.94;99387.72;5085882;28;38693;-78
2021/06/10 07:38:56;;;;;;;1.47;1.37;;;;;;;28.40;51.30;99395.91;5056500;28;40764;-78
2021/06/10 07:41:23;;;;;;;2.13;1.93;;;;;;;29.11;48.26;99389.28;5103453;28;42668;-78
2021/06/10 07:43:51;;;;;;;1.63;1.50;;;;;;;29.99;47.11;99401.22;5102871;28;40921;-77
2021/06/10 07:46:20;;;;;;;1.60;1.50;;;;;;;30.97;44.92;99418.69;5086089;28;39319;-78
2021/06/10 07:48:47;;;;;;;1.70;1.60;;;;;;;32.13;42.47;99425.84;5085881;28;40841;-78
2021/06/10 07:51:14;;;;;;;2.03;1.50;;;;;;;33.33;40.37;99431.16;5068928;28;42338;-78
2021/06/10 07:53:42;;;;;;;1.50;1.40;;;;;;;34.18;39.02;99407.19;5068172;28;42340;-78
2021/06/10 07:56:09;;;;;;;2.20;2.00;;;;;;;34.84;37.73;99411.66;5086375;28;39802;-78
2021/06/10 07:58:36;;;;;;;1.47;1.37;;;;;;;35.28;36.85;99440.47;5069252;28;41331;-78
2021/06/10 08:01:04;;;;;;;2.00;1.90;;;;;;;35.00;37.64;99427.41;5068496;28;43143;-79
2021/06/10 08:03:33;;;;;;;1.67;1.57;;;;;;;34.23;38.48;99434.84;5085406;28;42234;-78
2021/06/10 08:06:01;;;;;;;2.10;2.00;;;;;;;33.50;39.86;99404.75;5068030;28;40640;-78
2021/06/10 08:08:28;;;;;;;2.23;1.83;;;;;;;33.55;40.31;99413.13;5102737;28;41652;-78
2021/06/10 08:10:56;;;;;;;2.93;2.70;;;;;;;34.05;37.35;99434.88;5070002;28;42687;-79
2021/06/10 08:13:24;;;;;;;2.30;1.93;;;;;;;34.99;36.71;99438.69;5064868;28;41913;-78
2021/06/10 08:15:52;;;;;;;2.10;2.00;;;;;;;35.98;35.33;99448.56;5048813;28;39917;-78
2021/06/10 08:18:19;;;;;;;1.80;1.70;;;;;;;36.90;34.23;99457.41;5032349;28;41954;-78
2021/06/10 08:20:48;;;;;;;2.00;1.90;;;;;;;37.83;31.08;99468.72;5046816;28;42459;-79
2021/06/10 08:23:15;;;;;;;2.60;2.40;;;;;;;38.37;30.52;99475.13;5069982;28;42926;-78
2021/06/10 08:25:43;;;;;;;1.93;1.83;;;;;;;38.66;30.64;99461.84;5056249;28;38748;-79
2021/06/10 08:28:12;;;;;;;2.27;2.07;;;;;;;38.52;30.16;99466.97;5101187;28;41782;-78
2021/06/10 08:30:41;;;;;;;2.50;2.33;;;;;;;38.01;30.33;99452.59;5067362;28;42609;-79
2021/06/10 08:33:08;;;;;;;2.40;2.20;;;;;;;37.51;31.57;99438.13;5069798;28;42031;-79
2021/06/10 08:35:35;;;;;;;1.80;1.70;;;;;;;37.17;32.77;99443.78;5067487;28;40200;-78
2021/06/10 08:38:07;;;;;;;1.93;1.83;;;;;;;36.95;32.75;99445.63;5068494;28;43157;-80
2021/06/10 08:40:36;;;;;;;1.77;1.67;;;;;;;36.92;33.65;99435.06;5054966;28;42068;-79
2021/06/10 08:43:03;;;;;;;2.03;1.93;;;;;;;37.32;32.18;99434.84;5066895;28;42174;-79
2021/06/10 08:45:32;;;;;;;2.60;2.40;;;;;;;38.07;30.49;99448.78;5067319;28;40745;-79
2021/06/10 08:48:00;;;;;;;2.33;2.13;;;;;;;39.11;29.71;99448.34;5065414;28;41653;-79
2021/06/10 08:50:28;;;;;;;2.28;2.17;;;;;;;40.11;29.45;99451.88;5064819;28;41819;-79
2021/06/10 08:52:56;;;;;;;2.10;2.00;;;;;;;41.03;28.02;99457.53;5065001;28;42041;-80
2021/06/10 08:55:26;;;;;;;1.83;1.73;;;;;;;41.66;27.58;99455.16;5068393;28;39840;-79
2021/06/10 08:57:54;;;;;;;2.20;2.00;;;;;;;41.89;27.01;99460.06;5093021;28;40707;-79
2021/06/10 09:00:24;;;;;;;2.15;2.05;;;;;;;42.00;26.75;99461.69;5067388;28;42918;-80
2021/06/10 09:02:53;;;;;;;1.83;1.73;;;;;;;41.85;26.15;99447.84;5050905;28;41495;-79
2021/06/10 09:05:21;;;;;;;2.30;2.00;;;;;;;41.73;26.16;99456.53;5083764;28;38764;-80
2021/06/10 09:07:54;;;;;;;1.93;1.83;;;;;;;41.68;26.50;99458.47;5085649;28;41631;-80
2021/06/10 09:10:23;;;;;;;2.63;2.40;;;;;;;41.79;25.28;99468.47;5067535;28;43158;-79
2021/06/10 09:12:53;;;;;;;1.70;1.57;;;;;;;42.12;25.90;99467.75;5069474;28;41151;-79
2021/06/10 09:15:22;;;;;;;2.00;1.90;;;;;;;42.50;25.46;99465.28;5051629;28;38737;-81
2021/06/10 09:17:49;;;;;;;2.37;2.17;;;;;;;42.22;25.69;99459.31;5085893;28;40667;-76
2021/06/10 09:20:45;;;;;;;1.83;1.73;;;;;;;42.65;24.57;99473.53;5067667;28;42866;-78
2021/06/10 09:23:18;;;;;;;1.95;1.85;;;;;;;42.83;23.93;99470.03;5001982;28;41124;-78
2021/06/10 09:25:49;;;;;;;2.13;2.03;;;;;;;42.79;24.39;99460.59;5048164;28;38880;-78
2021/06/10 09:28:18;;;;;;;2.42;2.22;;;;;;;43.00;23.59;99458.47;5063888;28;41182;-79
2021/06/10 09:30:49;;;;;;;2.58;2.38;;;;;;;43.22;23.60;99449.63;5091170;28;43426;-80
2021/06/10 09:33:18;;;;;;;1.80;1.70;;;;;;;43.52;24.61;99443.69;5088339;28;42014;-78
2021/06/10 09:35:46;;;;;;;2.15;2.03;;;;;;;43.11;24.80;99442.47;5068922;28;40942;-81
2021/06/10 09:38:17;;;;;;;2.23;2.03;;;;;;;42.00;25.22;99453.34;5084980;28;40946;-79
2021/06/10 09:40:45;;;;;;;2.03;1.93;;;;;;;41.48;25.54;99431.56;5084043;28;42077;-78
2021/06/10 09:43:12;;;;;;;2.40;2.20;;;;;;;41.78;25.65;99445.38;5069187;28;42699;-80
2021/06/10 09:45:48;;;;;;;2.13;2.03;;;;;;;42.51;25.06;99450.25;5068645;28;40287;-77
2021/06/10 09:48:16;;;;;;;1.67;1.58;;;;;;;42.91;25.72;99438.75;5084369;28;40688;-78
2021/06/10 09:50:46;;;;;;;2.05;1.95;;;;;;;41.81;26.60;99435.59;5063757;28;42437;-80
2021/06/10 09:53:16;;;;;;;1.85;1.75;;;;;;;41.62;26.00;99426.25;5082085;28;41716;-78
2021/06/10 09:55:45;;;;;;;2.60;2.40;;;;;;;42.70;23.80;99447.56;5061104;28;40551;-80
2021/06/10 09:58:24;;;;;;;2.35;2.15;;;;;;;43.59;23.77;99455.34;5069412;27;41651;-81
2021/06/10 10:00:55;;;;;;;2.53;2.33;;;;;;;43.46;22.76;99449.63;5066814;28;42806;-81
2021/06/10 10:03:32;;;;;;;1.90;1.80;;;;;;;42.83;23.45;99436.59;5068207;28;42214;-78
2021/06/10 10:06:03;;;;;;;1.92;1.83;;;;;;;42.27;24.69;99433.41;5084339;28;39196;-80
2021/06/10 10:08:33;;;;;;;2.03;1.93;;;;;;;41.72;24.66;99428.97;5067905;28;41409;-80
2021/06/10 10:11:01;;;;;;;2.07;1.93;;;;;;;41.32;25.46;99416.88;5046810;28;42707;-77
2021/06/10 10:13:30;;;;;;;1.80;1.70;;;;;;;40.47;26.78;99416.69;5031429;28;41302;-79
2021/06/10 10:16:00;;;;;;;1.77;1.67;;;;;;;39.83;27.95;99399.63;5031298;28;39790;-77
2021/06/10 10:18:27;;;;;;;1.97;1.87;;;;;;;39.22;28.82;99366.09;5049064;28;41690;-79
2021/06/10 10:20:58;;;;;;;2.10;2.00;;;;;;;38.84;29.82;99360.88;5051460;28;43491;-77
2021/06/10 10:23:26;;;;;;;2.10;1.90;;;;;;;38.37;29.08;99375.47;5067563;28;42399;-77
2021/06/10 10:25:58;;;;;;;1.80;1.70;;;;;;;37.86;28.95;99358.38;5067955;28;40840;-80
2021/06/10 10:28:27;;;;;;;2.00;1.80;;;;;;;37.48;29.90;99361.25;5048805;28;40882;-79
2021/06/10 10:30:55;;;;;;;1.90;1.80;;;;;;;37.08;30.40;99356.88;5067833;28;42678;-77
2021/06/10 10:33:25;;;;;;;1.67;1.57;;;;;;;36.42;31.28;99331.03;5069124;28;42715;-81
2021/06/10 10:35:55;;;;;;;1.47;1.37;;;;;;;36.35;31.11;99349.72;5083569;28;38934;-78
2021/06/10 10:38:31;;;;;;;2.57;1.77;;;;;;;36.35;30.57;99349.72;5068521;28;41623;-77
2021/06/10 10:41:02;;;;;;;1.67;1.57;;;;;;;36.26;31.55;99345.66;5066191;28;42469;-80
2021/06/10 10:43:30;;;;;;;1.20;1.17;;;;;;;36.19;31.34;99342.22;5067090;28;42951;-78
2021/06/10 10:46:07;;;;;;;1.87;1.77;;;;;;;36.19;30.38;99348.59;5069203;28;40730;-80
2021/06/10 10:48:38;;;;;;;1.10;1.10;;;;;;;35.82;29.54;99326.16;5048904;28;41408;-79
2021/06/10 10:51:24;;;;;;;0.80;0.80;;;;;;;35.75;29.89;99350.25;5082666;28;42707;-79
2021/06/10 10:53:56;;;;;;;1.70;1.60;;;;;;;35.51;28.80;99356.94;5049444;28;41514;-81
2021/06/10 10:56:37;;;;;;;1.40;1.30;;;;;;;35.40;32.31;99322.00;5071315;28;39756;-76
2021/06/10 10:59:12;;;;;;;1.77;1.67;;;;;;;35.22;30.74;99331.25;5071205;28;42514;-81
2021/06/10 11:01:40;;;;;;;1.40;1.30;;;;;;;35.05;31.62;99308.31;5100332;28;42010;-78
2021/06/10 11:04:48;;;;;;;1.63;1.47;;;;;;;35.01;31.05;99320.88;5053506;28;41325;-82
2021/06/10 11:07:53;;;;;;;1.50;1.40;;;;;;;34.86;34.65;99297.47;5104026;28;39931;-80
2021/06/10 11:10:59;;;;;;;1.43;1.33;;;;;;;34.90;32.30;99306.06;5070244;28;42253;-78
2021/06/10 11:13:28;;;;;;;1.97;1.80;;;;;;;35.00;32.92;99299.94;5084307;28;42645;-76
2021/06/10 11:15:58;;;;;;;1.67;1.57;;;;;;;35.11;32.08;99313.69;5059111;28;41930;-80
2021/06/10 11:18:46;;;;;;;1.67;1.57;;;;;;;35.25;33.75;99304.09;5069843;28;41207;-83
2021/06/10 11:21:51;;;;;;;2.00;1.70;;;;;;;35.22;31.33;99318.34;5072189;28;42432;-78
2021/06/10 11:24:24;;;;;;;1.67;1.57;;;;;;;35.25;32.90;99315.09;5086699;28;43030;-80
2021/06/10 11:27:04;;;;;;;1.50;1.40;;;;;;;35.39;34.57;99276.25;5065728;28;42959;-79
2021/06/10 11:29:32;;;;;;;1.83;1.73;;;;;;;35.55;31.37;99303.00;5049489;28;39047;-79
2021/06/10 11:32:26;;;;;;;1.83;1.70;;;;;;;35.61;31.51;99313.03;5093497;28;41790;-77
2021/06/10 11:34:55;;;;;;;1.83;1.73;;;;;;;35.79;35.50;99285.28;5100971;28;42674;-79
2021/06/10 11:37:27;;;;;;;1.93;1.80;;;;;;;36.09;34.64;99289.66;5066613;28;42304;-77
2021/06/10 11:39:55;;;;;;;1.80;1.70;;;;;;;36.36;32.86;99307.22;5052594;28;39103;-78
2021/06/10 11:42:24;;;;;;;2.20;2.10;;;;;;;36.62;33.32;99281.66;5084644;28;40986;-79
2021/06/10 11:44:52;;;;;;;2.00;1.90;;;;;;;37.24;32.87;99289.69;5051093;28;42277;-79